sensor_id;sensor_type;location;lat;lon;timestamp;pressure;altitude;pressure_sealevel;temperature;humidity
9257;BME280;4665;51.368;6.782;2023-01-04T00:00:34;101873.53;;;7.17;100.00
9257;BME280;4665;51.368;6.782;2023-01-04T00:02:59;101895.91;;;7.26;100.00
9257;BME280;4665;51.368;6.782;2023-01-04T00:05:25;101871.00;;;7.15;100.00
9257;BME280;4665;51.368;6.782;2023-01-04T00:07:50;101867.50;;;7.28;100.00
9257;BME280;4665;51.368;6.782;2023-01-04T00:10:15;101859.66;;;7.39;100.00
9257;BME280;4665;51.368;6.782;2023-01-04T00:12:41;101853.09;;;7.32;100.00
9257;BME280;4665;51.368;6.782;2023-01-04T00:15:06;101867.19;;;7.45;100.00
9257;BME280;4665;51.368;6.782;2023-01-04T00:17:32;101852.44;;;7.28;100.00
9257;BME280;4665;51.368;6.782;2023-01-04T00:19:57;101867.94;;;7.34;100.00
9257;BME280;4665;51.368;6.782;2023-01-04T00:22:23;101850.75;;;7.27;100.00
9257;BME280;4665;51.368;6.782;2023-01-04T00:24:48;101839.84;;;7.32;100.00
9257;BME280;4665;51.368;6.782;2023-01-04T00:27:14;101852.34;;;7.43;100.00
9257;BME280;4665;51.368;6.782;2023-01-04T00:29:39;101837.09;;;7.33;100.00
9257;BME280;4665;51.368;6.782;2023-01-04T00:32:04;101845.44;;;7.40;100.00
9257;BME280;4665;51.368;6.782;2023-01-04T00:34:30;101839.41;;;7.38;100.00
9257;BME280;4665;51.368;6.782;2023-01-04T00:36:55;101836.97;;;7.35;100.00
9257;BME280;4665;51.368;6.782;2023-01-04T00:39:20;101824.78;;;7.32;100.00
9257;BME280;4665;51.368;6.782;2023-01-04T00:41:47;101829.75;;;7.37;100.00
9257;BME280;4665;51.368;6.782;2023-01-04T00:44:13;101830.59;;;7.37;100.00
9257;BME280;4665;51.368;6.782;2023-01-04T00:46:40;101831.66;;;7.35;100.00
9257;BME280;4665;51.368;6.782;2023-01-04T00:49:08;101819.28;;;7.23;100.00
9257;BME280;4665;51.368;6.782;2023-01-04T00:51:34;101821.38;;;7.30;100.00
9257;BME280;4665;51.368;6.782;2023-01-04T00:54:02;101819.78;;;7.28;100.00
9257;BME280;4665;51.368;6.782;2023-01-04T00:56:29;101811.28;;;7.35;100.00
9257;BME280;4665;51.368;6.782;2023-01-04T00:58:59;101808.97;;;7.31;100.00
9257;BME280;4665;51.368;6.782;2023-01-04T01:01:26;101806.53;;;7.28;100.00
9257;BME280;4665;51.368;6.782;2023-01-04T01:03:57;101789.78;;;7.27;100.00
9257;BME280;4665;51.368;6.782;2023-01-04T01:06:23;101790.97;;;7.23;100.00
9257;BME280;4665;51.368;6.782;2023-01-04T01:08:50;101788.53;;;7.20;100.00
9257;BME280;4665;51.368;6.782;2023-01-04T01:11:16;101783.44;;;7.17;100.00
9257;BME280;4665;51.368;6.782;2023-01-04T01:13:42;101781.31;;;7.22;100.00
9257;BME280;4665;51.368;6.782;2023-01-04T01:16:13;101787.56;;;7.21;100.00
9257;BME280;4665;51.368;6.782;2023-01-04T01:18:40;101770.16;;;7.30;100.00
9257;BME280;4665;51.368;6.782;2023-01-04T01:21:08;101779.09;;;7.29;100.00
9257;BME280;4665;51.368;6.782;2023-01-04T01:23:33;101769.53;;;7.26;100.00
9257;BME280;4665;51.368;6.782;2023-01-04T01:26:03;101770.41;;;7.27;100.00
9257;BME280;4665;51.368;6.782;2023-01-04T01:28:30;101767.94;;;7.24;100.00
9257;BME280;4665;51.368;6.782;2023-01-04T01:30:55;101762.88;;;7.21;100.00
9257;BME280;4665;51.368;6.782;2023-01-04T01:33:23;101743.16;;;7.12;100.00
9257;BME280;4665;51.368;6.782;2023-01-04T01:35:49;101751.31;;;7.22;100.00
9257;BME280;4665;51.368;6.782;2023-01-04T01:38:14;101740.75;;;7.09;100.00
9257;BME280;4665;51.368;6.782;2023-01-04T01:40:41;101733.13;;;7.04;100.00
9257;BME280;4665;51.368;6.782;2023-01-04T01:43:17;101728.22;;;7.11;100.00
9257;BME280;4665;51.368;6.782;2023-01-04T01:45:43;101737.66;;;7.15;100.00
9257;BME280;4665;51.368;6.782;2023-01-04T01:48:14;101733.00;;;7.06;100.00
9257;BME280;4665;51.368;6.782;2023-01-04T01:50:49;101732.38;;;7.02;100.00
9257;BME280;4665;51.368;6.782;2023-01-04T01:53:18;101751.75;;;7.15;100.00
9257;BME280;4665;51.368;6.782;2023-01-04T01:55:46;101724.41;;;7.02;100.00
9257;BME280;4665;51.368;6.782;2023-01-04T01:58:17;101749.44;;;7.11;100.00
9257;BME280;4665;51.368;6.782;2023-01-04T02:00:46;101763.84;;;7.20;100.00
9257;BME280;4665;51.368;6.782;2023-01-04T02:03:20;101749.84;;;7.18;100.00
9257;BME280;4665;51.368;6.782;2023-01-04T02:05:50;101731.44;;;7.03;100.00
9257;BME280;4665;51.368;6.782;2023-01-04T02:08:17;101735.13;;;7.13;100.00
9257;BME280;4665;51.368;6.782;2023-01-04T02:10:44;101736.03;;;7.12;100.00
9257;BME280;4665;51.368;6.782;2023-01-04T02:13:20;101739.44;;;7.14;100.00
9257;BME280;4665;51.368;6.782;2023-01-04T02:16:09;101753.44;;;7.16;100.00
9257;BME280;4665;51.368;6.782;2023-01-04T02:25:00;101742.84;;;7.16;100.00
9257;BME280;4665;51.368;6.782;2023-01-04T02:27:59;101745.28;;;7.20;100.00
9257;BME280;4665;51.368;6.782;2023-01-04T02:31:00;101743.69;;;7.17;100.00
9257;BME280;4665;51.368;6.782;2023-01-04T02:41:31;101728.00;;;7.14;100.00
9257;BME280;4665;51.368;6.782;2023-01-04T02:44:12;101723.53;;;7.14;100.00
9257;BME280;4665;51.368;6.782;2023-01-04T02:47:05;101722.69;;;7.14;100.00
9257;BME280;4665;51.368;6.782;2023-01-04T02:49:30;101716.78;;;7.10;100.00
9257;BME280;4665;51.368;6.782;2023-01-04T02:52:15;101710.75;;;7.08;100.00
9257;BME280;4665;51.368;6.782;2023-01-04T02:54:42;101707.03;;;7.11;100.00
9257;BME280;4665;51.368;6.782;2023-01-04T03:00:29;101676.50;;;7.05;100.00
9257;BME280;4665;51.368;6.782;2023-01-04T03:03:22;101698.84;;;7.14;100.00
9257;BME280;4665;51.368;6.782;2023-01-04T03:06:21;101696.09;;;7.15;100.00
9257;BME280;4665;51.368;6.782;2023-01-04T03:08:56;101697.78;;;7.16;100.00
9257;BME280;4665;51.368;6.782;2023-01-04T03:11:33;101687.81;;;7.20;100.00
9257;BME280;4665;51.368;6.782;2023-01-04T03:14:23;101667.69;;;7.18;100.00
9257;BME280;4665;51.368;6.782;2023-01-04T03:16:53;101673.72;;;7.20;100.00
9257;BME280;4665;51.368;6.782;2023-01-04T03:19:21;101669.88;;;7.24;100.00
9257;BME280;4665;51.368;6.782;2023-01-04T03:22:12;101667.75;;;7.29;100.00
9257;BME280;4665;51.368;6.782;2023-01-04T03:25:00;101664.03;;;7.31;100.00
9257;BME280;4665;51.368;6.782;2023-01-04T03:27:45;101654.78;;;7.37;100.00
9257;BME280;4665;51.368;6.782;2023-01-04T03:30:34;101643.72;;;7.43;100.00
9257;BME280;4665;51.368;6.782;2023-01-04T03:33:21;101646.94;;;7.59;100.00
9257;BME280;4665;51.368;6.782;2023-01-04T03:39:15;101637.47;;;7.79;100.00
9257;BME280;4665;51.368;6.782;2023-01-04T03:42:07;101642.22;;;7.87;100.00
9257;BME280;4665;51.368;6.782;2023-01-04T03:45:02;101627.38;;;7.96;100.00
9257;BME280;4665;51.368;6.782;2023-01-04T03:48:42;101621.72;;;8.00;100.00
9257;BME280;4665;51.368;6.782;2023-01-04T03:51:01;101616.06;;;8.05;100.00
9257;BME280;4665;51.368;6.782;2023-01-04T03:53:31;101608.38;;;8.13;100.00
9257;BME280;4665;51.368;6.782;2023-01-04T03:55:58;101609.94;;;8.16;100.00
9257;BME280;4665;51.368;6.782;2023-01-04T03:58:25;101615.28;;;8.27;100.00
9257;BME280;4665;51.368;6.782;2023-01-04T04:00:51;101611.28;;;8.33;100.00
9257;BME280;4665;51.368;6.782;2023-01-04T04:03:16;101591.38;;;8.27;100.00
9257;BME280;4665;51.368;6.782;2023-01-04T04:05:43;101584.16;;;8.29;100.00
9257;BME280;4665;51.368;6.782;2023-01-04T04:08:28;101592.59;;;8.34;100.00
9257;BME280;4665;51.368;6.782;2023-01-04T04:10:55;101578.47;;;8.34;100.00
9257;BME280;4665;51.368;6.782;2023-01-04T04:13:22;101585.59;;;8.33;100.00
9257;BME280;4665;51.368;6.782;2023-01-04T04:15:47;101569.16;;;8.28;100.00
9257;BME280;4665;51.368;6.782;2023-01-04T04:18:13;101579.41;;;8.33;100.00
9257;BME280;4665;51.368;6.782;2023-01-04T04:20:38;101567.25;;;8.30;100.00
9257;BME280;4665;51.368;6.782;2023-01-04T04:23:04;101570.72;;;8.31;100.00
9257;BME280;4665;51.368;6.782;2023-01-04T04:25:29;101568.69;;;8.34;100.00
9257;BME280;4665;51.368;6.782;2023-01-04T04:27:55;101570.38;;;8.35;100.00
9257;BME280;4665;51.368;6.782;2023-01-04T04:30:20;101545.53;;;8.25;100.00
9257;BME280;4665;51.368;6.782;2023-01-04T04:32:45;101552.41;;;8.39;100.00
9257;BME280;4665;51.368;6.782;2023-01-04T04:35:11;101550.97;;;8.46;100.00
9257;BME280;4665;51.368;6.782;2023-01-04T04:37:36;101554.25;;;8.61;100.00
9257;BME280;4665;51.368;6.782;2023-01-04T04:40:03;101559.56;;;8.61;100.00
9257;BME280;4665;51.368;6.782;2023-01-04T04:42:28;101550.72;;;8.60;100.00
9257;BME280;4665;51.368;6.782;2023-01-04T04:44:54;101547.94;;;8.62;100.00
9257;BME280;4665;51.368;6.782;2023-01-04T04:47:19;101549.50;;;8.64;100.00
9257;BME280;4665;51.368;6.782;2023-01-04T04:49:45;101540.81;;;8.62;100.00
9257;BME280;4665;51.368;6.782;2023-01-04T04:52:10;101529.34;;;8.62;100.00
9257;BME280;4665;51.368;6.782;2023-01-04T04:54:35;101532.00;;;8.62;100.00
9257;BME280;4665;51.368;6.782;2023-01-04T04:57:01;101547.22;;;8.71;100.00
9257;BME280;4665;51.368;6.782;2023-01-04T04:59:26;101561.22;;;8.73;100.00
9257;BME280;4665;51.368;6.782;2023-01-04T05:01:52;101544.28;;;8.74;100.00
9257;BME280;4665;51.368;6.782;2023-01-04T05:04:17;101512.06;;;8.68;100.00
9257;BME280;4665;51.368;6.782;2023-01-04T05:06:45;101548.75;;;8.85;100.00
9257;BME280;4665;51.368;6.782;2023-01-04T05:09:12;101515.31;;;8.71;100.00
9257;BME280;4665;51.368;6.782;2023-01-04T05:11:38;101507.34;;;8.82;100.00
9257;BME280;4665;51.368;6.782;2023-01-04T05:14:22;101517.22;;;8.92;100.00
9257;BME280;4665;51.368;6.782;2023-01-04T05:16:47;101516.94;;;8.95;100.00
9257;BME280;4665;51.368;6.782;2023-01-04T05:19:13;101501.25;;;8.92;100.00
9257;BME280;4665;51.368;6.782;2023-01-04T05:21:38;101509.56;;;8.98;100.00
9257;BME280;4665;51.368;6.782;2023-01-04T05:24:05;101501.06;;;9.04;100.00
9257;BME280;4665;51.368;6.782;2023-01-04T05:26:31;101497.19;;;9.09;100.00
9257;BME280;4665;51.368;6.782;2023-01-04T05:28:56;101477.81;;;8.97;100.00
9257;BME280;4665;51.368;6.782;2023-01-04T05:31:22;101511.78;;;9.14;100.00
9257;BME280;4665;51.368;6.782;2023-01-04T05:33:47;101494.75;;;9.17;100.00
9257;BME280;4665;51.368;6.782;2023-01-04T05:36:13;101487.84;;;9.14;100.00
9257;BME280;4665;51.368;6.782;2023-01-04T05:38:38;101497.66;;;9.14;100.00
9257;BME280;4665;51.368;6.782;2023-01-04T05:41:04;101485.41;;;9.22;100.00
9257;BME280;4665;51.368;6.782;2023-01-04T05:43:49;101476.06;;;9.28;100.00
9257;BME280;4665;51.368;6.782;2023-01-04T05:46:15;101466.03;;;9.32;100.00
9257;BME280;4665;51.368;6.782;2023-01-04T05:48:40;101481.66;;;9.46;100.00
9257;BME280;4665;51.368;6.782;2023-01-04T05:51:05;101477.72;;;9.40;100.00
9257;BME280;4665;51.368;6.782;2023-01-04T05:53:31;101478.03;;;9.47;100.00
9257;BME280;4665;51.368;6.782;2023-01-04T05:55:56;101468.97;;;9.50;100.00
9257;BME280;4665;51.368;6.782;2023-01-04T05:58:21;101468.34;;;9.46;100.00
9257;BME280;4665;51.368;6.782;2023-01-04T06:00:47;101459.88;;;9.52;100.00
9257;BME280;4665;51.368;6.782;2023-01-04T06:03:12;101457.66;;;9.57;100.00
9257;BME280;4665;51.368;6.782;2023-01-04T06:05:37;101442.75;;;9.45;100.00
9257;BME280;4665;51.368;6.782;2023-01-04T06:08:03;101437.16;;;9.48;100.00
9257;BME280;4665;51.368;6.782;2023-01-04T06:10:28;101455.25;;;9.54;100.00
9257;BME280;4665;51.368;6.782;2023-01-04T06:12:54;101435.22;;;9.50;100.00
9257;BME280;4665;51.368;6.782;2023-01-04T06:15:19;101447.00;;;9.57;100.00
9257;BME280;4665;51.368;6.782;2023-01-04T06:17:45;101450.66;;;9.56;100.00
9257;BME280;4665;51.368;6.782;2023-01-04T06:20:10;101448.88;;;9.66;100.00
9257;BME280;4665;51.368;6.782;2023-01-04T06:22:36;101443.25;;;9.60;100.00
9257;BME280;4665;51.368;6.782;2023-01-04T06:25:02;101421.56;;;9.64;100.00
9257;BME280;4665;51.368;6.782;2023-01-04T06:27:28;101402.09;;;9.64;100.00
9257;BME280;4665;51.368;6.782;2023-01-04T06:29:53;101419.75;;;9.65;100.00
9257;BME280;4665;51.368;6.782;2023-01-04T06:32:19;101418.09;;;9.74;100.00
9257;BME280;4665;51.368;6.782;2023-01-04T06:34:44;101443.88;;;9.73;100.00
9257;BME280;4665;51.368;6.782;2023-01-04T06:37:10;101420.31;;;9.68;100.00
9257;BME280;4665;51.368;6.782;2023-01-04T06:39:36;101427.06;;;9.73;100.00
9257;BME280;4665;51.368;6.782;2023-01-04T06:42:01;101427.91;;;9.73;100.00
9257;BME280;4665;51.368;6.782;2023-01-04T06:44:27;101419.88;;;9.63;100.00
9257;BME280;4665;51.368;6.782;2023-01-04T06:46:52;101427.06;;;9.73;100.00
9257;BME280;4665;51.368;6.782;2023-01-04T06:49:18;101404.88;;;9.62;100.00
9257;BME280;4665;51.368;6.782;2023-01-04T06:51:43;101432.13;;;9.76;100.00
9257;BME280;4665;51.368;6.782;2023-01-04T06:54:09;101417.38;;;9.72;100.00
9257;BME280;4665;51.368;6.782;2023-01-04T06:56:36;101444.75;;;9.83;100.00
9257;BME280;4665;51.368;6.782;2023-01-04T06:59:01;101426.13;;;9.83;100.00
9257;BME280;4665;51.368;6.782;2023-01-04T07:01:27;101422.03;;;9.79;100.00
9257;BME280;4665;51.368;6.782;2023-01-04T07:03:52;101413.78;;;9.73;100.00
9257;BME280;4665;51.368;6.782;2023-01-04T07:06:17;101413.94;;;9.81;100.00
9257;BME280;4665;51.368;6.782;2023-01-04T07:08:43;101398.50;;;9.75;100.00
9257;BME280;4665;51.368;6.782;2023-01-04T07:11:08;101413.66;;;9.84;100.00
9257;BME280;4665;51.368;6.782;2023-01-04T07:13:33;101415.38;;;9.95;100.00
9257;BME280;4665;51.368;6.782;2023-01-04T07:15:59;101402.78;;;9.97;100.00
9257;BME280;4665;51.368;6.782;2023-01-04T07:18:24;101401.38;;;9.93;100.00
9257;BME280;4665;51.368;6.782;2023-01-04T07:20:50;101398.56;;;9.94;100.00
9257;BME280;4665;51.368;6.782;2023-01-04T07:23:15;101400.53;;;9.92;100.00
9257;BME280;4665;51.368;6.782;2023-01-04T07:25:41;101412.63;;;10.06;100.00
9257;BME280;4665;51.368;6.782;2023-01-04T07:28:07;101386.22;;;9.93;100.00
9257;BME280;4665;51.368;6.782;2023-01-04T07:30:33;101410.66;;;10.08;100.00
9257;BME280;4665;51.368;6.782;2023-01-04T07:32:58;101411.50;;;10.08;100.00
9257;BME280;4665;51.368;6.782;2023-01-04T07:35:24;101411.81;;;10.15;100.00
9257;BME280;4665;51.368;6.782;2023-01-04T07:37:50;101417.66;;;10.09;100.00
9257;BME280;4665;51.368;6.782;2023-01-04T07:40:16;101400.72;;;10.10;100.00
9257;BME280;4665;51.368;6.782;2023-01-04T07:42:41;101401.56;;;10.20;100.00
9257;BME280;4665;51.368;6.782;2023-01-04T07:45:07;101393.31;;;10.23;100.00
9257;BME280;4665;51.368;6.782;2023-01-04T07:47:32;101391.69;;;10.32;100.00
9257;BME280;4665;51.368;6.782;2023-01-04T07:49:58;101407.81;;;10.40;100.00
9257;BME280;4665;51.368;6.782;2023-01-04T07:52:24;101387.84;;;10.25;100.00
9257;BME280;4665;51.368;6.782;2023-01-04T07:54:50;101375.06;;;10.19;100.00
9257;BME280;4665;51.368;6.782;2023-01-04T07:57:15;101391.22;;;10.27;100.00
9257;BME280;4665;51.368;6.782;2023-01-04T07:59:41;101383.97;;;10.29;100.00
9257;BME280;4665;51.368;6.782;2023-01-04T08:02:09;101387.78;;;10.46;100.00
9257;BME280;4665;51.368;6.782;2023-01-04T08:04:34;101409.94;;;10.56;100.00
9257;BME280;4665;51.368;6.782;2023-01-04T08:07:00;101397.59;;;10.45;100.00
9257;BME280;4665;51.368;6.782;2023-01-04T08:09:25;101375.56;;;10.34;100.00
9257;BME280;4665;51.368;6.782;2023-01-04T08:11:50;101372.78;;;10.35;100.00
9257;BME280;4665;51.368;6.782;2023-01-04T08:14:16;101385.25;;;10.44;100.00
9257;BME280;4665;51.368;6.782;2023-01-04T08:16:42;101406.28;;;10.47;100.00
9257;BME280;4665;51.368;6.782;2023-01-04T08:19:15;101376.69;;;10.31;100.00
9257;BME280;4665;51.368;6.782;2023-01-04T08:21:41;101390.59;;;10.44;100.00
9257;BME280;4665;51.368;6.782;2023-01-04T08:24:09;101372.06;;;10.33;100.00
9257;BME280;4665;51.368;6.782;2023-01-04T08:26:35;101385.94;;;10.46;100.00
9257;BME280;4665;51.368;6.782;2023-01-04T08:29:11;101375.03;;;10.49;100.00
9257;BME280;4665;51.368;6.782;2023-01-04T08:31:37;101358.34;;;10.47;100.00
9257;BME280;4665;51.368;6.782;2023-01-04T08:34:04;101369.81;;;10.48;100.00
9257;BME280;4665;51.368;6.782;2023-01-04T08:36:32;101381.47;;;10.57;100.00
9257;BME280;4665;51.368;6.782;2023-01-04T08:39:01;101363.38;;;10.60;100.00
9257;BME280;4665;51.368;6.782;2023-01-04T08:41:29;101366.47;;;10.65;100.00
9257;BME280;4665;51.368;6.782;2023-01-04T08:43:55;101353.00;;;10.67;100.00
9257;BME280;4665;51.368;6.782;2023-01-04T08:46:20;101358.63;;;10.64;100.00
9257;BME280;4665;51.368;6.782;2023-01-04T08:48:45;101354.41;;;10.61;100.00
9257;BME280;4665;51.368;6.782;2023-01-04T08:51:13;101362.25;;;10.63;100.00
9257;BME280;4665;51.368;6.782;2023-01-04T08:53:39;101348.09;;;10.52;100.00
9257;BME280;4665;51.368;6.782;2023-01-04T08:56:05;101360.56;;;10.62;100.00
9257;BME280;4665;51.368;6.782;2023-01-04T08:58:33;101363.09;;;10.53;100.00
9257;BME280;4665;51.368;6.782;2023-01-04T09:01:09;101358.91;;;10.61;100.00
9257;BME280;4665;51.368;6.782;2023-01-04T09:03:36;101356.38;;;10.49;100.00
9257;BME280;4665;51.368;6.782;2023-01-04T09:06:12;101352.00;;;10.58;100.00
9257;BME280;4665;51.368;6.782;2023-01-04T09:08:39;101340.09;;;10.52;100.00
9257;BME280;4665;51.368;6.782;2023-01-04T09:11:07;101348.38;;;10.49;100.00
9257;BME280;4665;51.368;6.782;2023-01-04T09:13:34;101353.13;;;10.56;100.00
9257;BME280;4665;51.368;6.782;2023-01-04T09:16:00;101339.97;;;10.54;100.00
9257;BME280;4665;51.368;6.782;2023-01-04T09:18:26;101328.03;;;10.58;100.00
9257;BME280;4665;51.368;6.782;2023-01-04T09:20:51;101338.84;;;10.66;100.00
9257;BME280;4665;51.368;6.782;2023-01-04T09:23:17;101353.56;;;10.61;100.00
9257;BME280;4665;51.368;6.782;2023-01-04T09:25:42;101330.28;;;10.43;100.00
9257;BME280;4665;51.368;6.782;2023-01-04T09:28:07;101327.50;;;10.45;100.00
9257;BME280;4665;51.368;6.782;2023-01-04T09:30:34;101337.03;;;10.47;100.00
9257;BME280;4665;51.368;6.782;2023-01-04T09:32:59;101333.78;;;10.53;100.00
9257;BME280;4665;51.368;6.782;2023-01-04T09:35:24;101324.53;;;10.48;100.00
9257;BME280;4665;51.368;6.782;2023-01-04T09:37:50;101330.84;;;10.66;100.00
9257;BME280;4665;51.368;6.782;2023-01-04T09:40:21;101347.25;;;10.71;100.00
9257;BME280;4665;51.368;6.782;2023-01-04T09:42:49;101350.50;;;10.65;100.00
9257;BME280;4665;51.368;6.782;2023-01-04T09:45:20;101354.00;;;10.66;100.00
9257;BME280;4665;51.368;6.782;2023-01-04T09:47:57;101358.63;;;10.64;100.00
9257;BME280;4665;51.368;6.782;2023-01-04T09:50:33;101353.69;;;10.79;100.00
9257;BME280;4665;51.368;6.782;2023-01-04T09:53:10;101349.66;;;10.74;100.00
9257;BME280;4665;51.368;6.782;2023-01-04T09:55:41;101359.72;;;10.81;100.00
9257;BME280;4665;51.368;6.782;2023-01-04T09:58:38;101359.72;;;10.71;100.00
9257;BME280;4665;51.368;6.782;2023-01-04T10:04:44;101367.84;;;10.69;100.00
9257;BME280;4665;51.368;6.782;2023-01-04T10:07:25;101383.84;;;10.60;100.00
9257;BME280;4665;51.368;6.782;2023-01-04T10:09:52;101384.97;;;10.57;100.00
9257;BME280;4665;51.368;6.782;2023-01-04T10:13:04;101369.81;;;10.58;100.00
9257;BME280;4665;51.368;6.782;2023-01-04T10:26:12;101351.59;;;10.63;100.00
9257;BME280;4665;51.368;6.782;2023-01-04T10:28:54;101350.75;;;10.62;100.00
9257;BME280;4665;51.368;6.782;2023-01-04T10:31:27;101351.88;;;10.69;100.00
9257;BME280;4665;51.368;6.782;2023-01-04T10:36:52;101334.75;;;10.62;100.00
9257;BME280;4665;51.368;6.782;2023-01-04T10:39:22;101341.50;;;10.66;100.00
9257;BME280;4665;51.368;6.782;2023-01-04T10:42:05;101338.41;;;10.71;100.00
9257;BME280;4665;51.368;6.782;2023-01-04T10:44:37;101343.44;;;10.74;100.00
9257;BME280;4665;51.368;6.782;2023-01-04T10:50:07;101318.50;;;10.75;100.00
9257;BME280;4665;51.368;6.782;2023-01-04T10:55:51;101325.09;;;10.71;100.00
9257;BME280;4665;51.368;6.782;2023-01-04T10:58:26;101314.97;;;10.65;100.00
9257;BME280;4665;51.368;6.782;2023-01-04T11:00:58;101316.25;;;10.70;100.00
9257;BME280;4665;51.368;6.782;2023-01-04T11:03:36;101313.16;;;10.75;100.00
9257;BME280;4665;51.368;6.782;2023-01-04T11:06:20;101311.63;;;10.72;100.00
9257;BME280;4665;51.368;6.782;2023-01-04T11:11:33;101301.09;;;10.81;100.00
9257;BME280;4665;51.368;6.782;2023-01-04T11:14:00;101306.38;;;10.90;100.00
9257;BME280;4665;51.368;6.782;2023-01-04T11:16:28;101300.53;;;10.87;100.00
9257;BME280;4665;51.368;6.782;2023-01-04T11:18:54;101282.81;;;10.86;100.00
9257;BME280;4665;51.368;6.782;2023-01-04T11:21:24;101290.41;;;10.90;100.00
9257;BME280;4665;51.368;6.782;2023-01-04T11:23:53;101289.44;;;10.91;100.00
9257;BME280;4665;51.368;6.782;2023-01-04T11:26:25;101283.25;;;10.91;100.00
9257;BME280;4665;51.368;6.782;2023-01-04T11:28:59;101291.78;;;10.94;100.00
9257;BME280;4665;51.368;6.782;2023-01-04T11:34:01;101294.16;;;11.07;100.00
9257;BME280;4665;51.368;6.782;2023-01-04T11:38:56;101292.84;;;11.11;100.00
9257;BME280;4665;51.368;6.782;2023-01-04T11:41:23;101294.56;;;11.12;100.00
9257;BME280;4665;51.368;6.782;2023-01-04T11:44:03;101277.72;;;11.12;100.00
9257;BME280;4665;51.368;6.782;2023-01-04T11:46:31;101275.59;;;11.15;100.00
9257;BME280;4665;51.368;6.782;2023-01-04T11:48:57;101272.38;;;11.12;100.00
9257;BME280;4665;51.368;6.782;2023-01-04T11:56:39;101272.91;;;11.15;100.00
9257;BME280;4665;51.368;6.782;2023-01-04T11:59:20;101260.31;;;11.08;100.00
9257;BME280;4665;51.368;6.782;2023-01-04T12:01:48;101268.72;;;11.13;100.00
9257;BME280;4665;51.368;6.782;2023-01-04T12:04:20;101248.66;;;11.09;100.00
9257;BME280;4665;51.368;6.782;2023-01-04T12:09:19;101266.75;;;11.15;100.00
9257;BME280;4665;51.368;6.782;2023-01-04T12:11:47;101260.31;;;11.08;100.00
9257;BME280;4665;51.368;6.782;2023-01-04T12:14:28;101264.56;;;11.01;100.00
9257;BME280;4665;51.368;6.782;2023-01-04T12:17:18;101270.16;;;10.98;100.00
9257;BME280;4665;51.368;6.782;2023-01-04T12:19:46;101266.84;;;10.95;100.00
9257;BME280;4665;51.368;6.782;2023-01-04T12:22:20;101266.97;;;10.94;100.00
9257;BME280;4665;51.368;6.782;2023-01-04T12:24:47;101262.78;;;10.91;100.00
9257;BME280;4665;51.368;6.782;2023-01-04T12:27:13;101268.38;;;10.88;100.00
9257;BME280;4665;51.368;6.782;2023-01-04T12:29:51;101268.66;;;10.85;100.00
9257;BME280;4665;51.368;6.782;2023-01-04T12:34:45;101261.28;;;10.79;100.00
9257;BME280;4665;51.368;6.782;2023-01-04T12:45:42;101236.97;;;10.82;100.00
9257;BME280;4665;51.368;6.782;2023-01-04T12:53:59;101235.97;;;10.83;100.00
9257;BME280;4665;51.368;6.782;2023-01-04T12:59:36;101259.72;;;10.86;100.00
9257;BME280;4665;51.368;6.782;2023-01-04T13:02:15;101242.56;;;10.89;100.00
9257;BME280;4665;51.368;6.782;2023-01-04T13:04:42;101236.25;;;10.90;100.00
9257;BME280;4665;51.368;6.782;2023-01-04T13:07:23;101227.28;;;10.91;100.00
9257;BME280;4665;51.368;6.782;2023-01-04T13:09:53;101228.50;;;10.97;100.00
9257;BME280;4665;51.368;6.782;2023-01-04T13:12:45;101248.69;;;10.99;100.00
9257;BME280;4665;51.368;6.782;2023-01-04T13:15:43;101239.56;;;11.02;100.00
9257;BME280;4665;51.368;6.782;2023-01-04T13:21:14;101238.00;;;11.09;100.00
9257;BME280;4665;51.368;6.782;2023-01-04T13:23:48;101228.47;;;11.06;100.00
9257;BME280;4665;51.368;6.782;2023-01-04T13:34:30;101233.88;;;11.24;100.00
9257;BME280;4665;51.368;6.782;2023-01-04T13:37:01;101228.41;;;11.26;100.00
9257;BME280;4665;51.368;6.782;2023-01-04T13:39:29;101221.38;;;11.25;100.00
9257;BME280;4665;51.368;6.782;2023-01-04T13:41:55;101236.22;;;11.27;100.00
9257;BME280;4665;51.368;6.782;2023-01-04T13:47:36;101226.66;;;11.34;100.00
9257;BME280;4665;51.368;6.782;2023-01-04T13:50:02;101209.06;;;11.42;100.00
9257;BME280;4665;51.368;6.782;2023-01-04T13:52:37;101215.25;;;11.42;100.00
9257;BME280;4665;51.368;6.782;2023-01-04T13:58:02;101206.56;;;11.40;100.00
9257;BME280;4665;51.368;6.782;2023-01-04T14:00:45;101207.38;;;11.41;100.00
9257;BME280;4665;51.368;6.782;2023-01-04T14:05:50;101202.06;;;11.41;100.00
9257;BME280;4665;51.368;6.782;2023-01-04T14:08:21;101203.72;;;11.42;100.00
9257;BME280;4665;51.368;6.782;2023-01-04T14:10:52;101209.91;;;11.42;100.00
9257;BME280;4665;51.368;6.782;2023-01-04T14:13:18;101210.44;;;11.46;100.00
9257;BME280;4665;51.368;6.782;2023-01-04T14:15:44;101203.81;;;11.50;100.00
9257;BME280;4665;51.368;6.782;2023-01-04T14:18:28;101215.69;;;11.37;100.00
9257;BME280;4665;51.368;6.782;2023-01-04T14:20:55;101199.59;;;11.29;100.00
9257;BME280;4665;51.368;6.782;2023-01-04T14:23:34;101201.72;;;11.26;100.00
9257;BME280;4665;51.368;6.782;2023-01-04T14:26:02;101202.38;;;11.28;100.00
9257;BME280;4665;51.368;6.782;2023-01-04T14:28:36;101186.88;;;11.23;100.00
9257;BME280;4665;51.368;6.782;2023-01-04T14:38:53;101191.69;;;11.37;100.00
9257;BME280;4665;51.368;6.782;2023-01-04T14:41:27;101181.53;;;11.41;100.00
9257;BME280;4665;51.368;6.782;2023-01-04T14:46:26;101200.59;;;11.46;100.00
9257;BME280;4665;51.368;6.782;2023-01-04T14:48:52;101199.75;;;11.46;100.00
9257;BME280;4665;51.368;6.782;2023-01-04T14:51:20;101188.72;;;11.41;100.00
9257;BME280;4665;51.368;6.782;2023-01-04T14:53:47;101188.84;;;11.39;100.00
9257;BME280;4665;51.368;6.782;2023-01-04T14:56:14;101202.88;;;11.41;100.00
9257;BME280;4665;51.368;6.782;2023-01-04T14:58:40;101197.84;;;11.38;100.00
9257;BME280;4665;51.368;6.782;2023-01-04T15:01:07;101207.28;;;11.32;100.00
9257;BME280;4665;51.368;6.782;2023-01-04T15:03:32;101200.66;;;11.36;100.00
9257;BME280;4665;51.368;6.782;2023-01-04T15:05:58;101198.16;;;11.35;100.00
9257;BME280;4665;51.368;6.782;2023-01-04T15:08:23;101200.66;;;11.36;100.00